sensor_id;sensor_type;location;lat;lon;timestamp;P1;durP1;ratioP1;P2;durP2;ratioP2
31808;SDS011;18379;48.208;-1.518;2022-10-30T00:01:47;57.53;;;53.53;;
31808;SDS011;18379;48.208;-1.518;2022-10-30T00:06:48;56.87;;;52.77;;
31808;SDS011;18379;48.208;-1.518;2022-10-30T00:11:48;56.20;;;52.00;;
31808;SDS011;18379;48.208;-1.518;2022-10-30T00:16:49;55.73;;;51.90;;
31808;SDS011;18379;48.208;-1.518;2022-10-30T00:21:50;56.03;;;51.67;;
31808;SDS011;18379;48.208;-1.518;2022-10-30T00:26:51;56.87;;;53.00;;
31808;SDS011;18379;48.208;-1.518;2022-10-30T00:31:52;57.37;;;53.33;;
31808;SDS011;18379;48.208;-1.518;2022-10-30T00:36:53;56.30;;;52.37;;
31808;SDS011;18379;48.208;-1.518;2022-10-30T00:41:53;56.30;;;52.37;;
31808;SDS011;18379;48.208;-1.518;2022-10-30T00:46:54;56.53;;;52.57;;
31808;SDS011;18379;48.208;-1.518;2022-10-30T00:51:55;57.23;;;52.93;;
31808;SDS011;18379;48.208;-1.518;2022-10-30T00:56:56;57.30;;;53.40;;
31808;SDS011;18379;48.208;-1.518;2022-10-30T01:02:00;48.87;;;45.60;;
31808;SDS011;18379;48.208;-1.518;2022-10-30T01:07:07;45.83;;;42.80;;
31808;SDS011;18379;48.208;-1.518;2022-10-30T01:12:10;45.80;;;42.83;;
31808;SDS011;18379;48.208;-1.518;2022-10-30T01:33:22;46.23;;;43.13;;
31808;SDS011;18379;48.208;-1.518;2022-10-30T01:38:36;57.77;;;53.67;;
31808;SDS011;18379;48.208;-1.518;2022-10-30T01:43:43;48.13;;;44.93;;
31808;SDS011;18379;48.208;-1.518;2022-10-30T01:59:39;46.20;;;43.17;;
31808;SDS011;18379;48.208;-1.518;2022-10-30T02:04:45;46.00;;;42.87;;
31808;SDS011;18379;48.208;-1.518;2022-10-30T02:09:46;45.47;;;42.37;;
31808;SDS011;18379;48.208;-1.518;2022-10-30T02:14:50;46.83;;;43.73;;
31808;SDS011;18379;48.208;-1.518;2022-10-30T02:19:55;57.27;;;53.07;;
31808;SDS011;18379;48.208;-1.518;2022-10-30T02:24:56;57.30;;;53.13;;
31808;SDS011;18379;48.208;-1.518;2022-10-30T02:29:57;57.27;;;53.10;;
31808;SDS011;18379;48.208;-1.518;2022-10-30T02:34:59;55.50;;;51.63;;
31808;SDS011;18379;48.208;-1.518;2022-10-30T02:40:02;56.03;;;51.63;;
31808;SDS011;18379;48.208;-1.518;2022-10-30T02:45:04;57.03;;;52.77;;
31808;SDS011;18379;48.208;-1.518;2022-10-30T02:50:05;55.57;;;51.47;;
31808;SDS011;18379;48.208;-1.518;2022-10-30T02:55:06;57.67;;;53.30;;
31808;SDS011;18379;48.208;-1.518;2022-10-30T03:00:08;56.70;;;52.37;;
31808;SDS011;18379;48.208;-1.518;2022-10-30T03:05:09;52.93;;;49.20;;
31808;SDS011;18379;48.208;-1.518;2022-10-30T03:10:10;49.63;;;46.17;;
31808;SDS011;18379;48.208;-1.518;2022-10-30T03:15:11;50.63;;;47.13;;
31808;SDS011;18379;48.208;-1.518;2022-10-30T03:20:12;47.87;;;44.23;;
31808;SDS011;18379;48.208;-1.518;2022-10-30T03:25:13;46.97;;;43.67;;
31808;SDS011;18379;48.208;-1.518;2022-10-30T03:30:14;46.10;;;42.87;;
31808;SDS011;18379;48.208;-1.518;2022-10-30T03:35:14;44.90;;;41.90;;
31808;SDS011;18379;48.208;-1.518;2022-10-30T03:40:16;45.20;;;42.13;;
31808;SDS011;18379;48.208;-1.518;2022-10-30T03:45:16;45.30;;;42.40;;
31808;SDS011;18379;48.208;-1.518;2022-10-30T03:50:17;44.90;;;41.80;;
31808;SDS011;18379;48.208;-1.518;2022-10-30T03:55:18;45.50;;;42.47;;
31808;SDS011;18379;48.208;-1.518;2022-10-30T04:00:19;44.87;;;41.80;;
31808;SDS011;18379;48.208;-1.518;2022-10-30T04:05:20;45.00;;;42.10;;
31808;SDS011;18379;48.208;-1.518;2022-10-30T04:10:23;44.90;;;42.10;;
31808;SDS011;18379;48.208;-1.518;2022-10-30T04:15:24;47.13;;;43.87;;
31808;SDS011;18379;48.208;-1.518;2022-10-30T04:20:25;50.57;;;47.30;;
31808;SDS011;18379;48.208;-1.518;2022-10-30T04:25:27;52.73;;;49.10;;
31808;SDS011;18379;48.208;-1.518;2022-10-30T04:30:28;54.67;;;50.90;;
31808;SDS011;18379;48.208;-1.518;2022-10-30T04:35:34;54.67;;;50.97;;
31808;SDS011;18379;48.208;-1.518;2022-10-30T04:40:37;55.70;;;52.03;;
31808;SDS011;18379;48.208;-1.518;2022-10-30T04:45:39;55.63;;;51.73;;
31808;SDS011;18379;48.208;-1.518;2022-10-30T04:50:41;55.13;;;51.40;;
31808;SDS011;18379;48.208;-1.518;2022-10-30T04:55:42;48.73;;;45.43;;
31808;SDS011;18379;48.208;-1.518;2022-10-30T05:00:43;44.97;;;42.37;;
31808;SDS011;18379;48.208;-1.518;2022-10-30T05:05:44;42.83;;;40.23;;
31808;SDS011;18379;48.208;-1.518;2022-10-30T05:10:47;43.37;;;40.73;;
31808;SDS011;18379;48.208;-1.518;2022-10-30T05:15:48;43.00;;;40.40;;
31808;SDS011;18379;48.208;-1.518;2022-10-30T05:20:48;43.23;;;40.57;;
31808;SDS011;18379;48.208;-1.518;2022-10-30T05:25:49;42.73;;;40.23;;
31808;SDS011;18379;48.208;-1.518;2022-10-30T05:30:53;42.77;;;40.27;;
31808;SDS011;18379;48.208;-1.518;2022-10-30T05:35:54;43.33;;;40.87;;
31808;SDS011;18379;48.208;-1.518;2022-10-30T05:40:55;47.57;;;44.77;;
31808;SDS011;18379;48.208;-1.518;2022-10-30T05:45:56;52.10;;;48.57;;
31808;SDS011;18379;48.208;-1.518;2022-10-30T05:50:57;50.13;;;47.03;;
31808;SDS011;18379;48.208;-1.518;2022-10-30T05:55:58;51.03;;;47.87;;
31808;SDS011;18379;48.208;-1.518;2022-10-30T06:00:59;52.87;;;49.27;;
31808;SDS011;18379;48.208;-1.518;2022-10-30T06:05:59;52.47;;;49.07;;
31808;SDS011;18379;48.208;-1.518;2022-10-30T06:11:00;54.83;;;51.13;;
31808;SDS011;18379;48.208;-1.518;2022-10-30T06:16:01;53.53;;;49.93;;
31808;SDS011;18379;48.208;-1.518;2022-10-30T06:21:02;53.80;;;50.03;;
31808;SDS011;18379;48.208;-1.518;2022-10-30T06:26:03;54.33;;;50.73;;
31808;SDS011;18379;48.208;-1.518;2022-10-30T06:31:03;54.63;;;51.00;;
31808;SDS011;18379;48.208;-1.518;2022-10-30T06:36:05;52.67;;;48.93;;
31808;SDS011;18379;48.208;-1.518;2022-10-30T06:41:06;53.70;;;50.17;;
31808;SDS011;18379;48.208;-1.518;2022-10-30T06:46:07;54.27;;;50.53;;
31808;SDS011;18379;48.208;-1.518;2022-10-30T06:51:07;53.87;;;50.17;;
31808;SDS011;18379;48.208;-1.518;2022-10-30T06:56:08;55.13;;;51.37;;
31808;SDS011;18379;48.208;-1.518;2022-10-30T07:01:09;54.23;;;50.60;;
31808;SDS011;18379;48.208;-1.518;2022-10-30T07:06:10;53.83;;;50.13;;
31808;SDS011;18379;48.208;-1.518;2022-10-30T07:11:11;53.77;;;50.10;;
31808;SDS011;18379;48.208;-1.518;2022-10-30T07:16:12;53.90;;;50.43;;
31808;SDS011;18379;48.208;-1.518;2022-10-30T07:21:12;53.13;;;49.63;;
31808;SDS011;18379;48.208;-1.518;2022-10-30T07:26:13;53.93;;;50.20;;
31808;SDS011;18379;48.208;-1.518;2022-10-30T07:31:14;52.97;;;49.40;;
31808;SDS011;18379;48.208;-1.518;2022-10-30T07:36:15;51.80;;;48.33;;
31808;SDS011;18379;48.208;-1.518;2022-10-30T07:41:16;47.47;;;44.43;;
31808;SDS011;18379;48.208;-1.518;2022-10-30T07:46:17;43.90;;;41.27;;
31808;SDS011;18379;48.208;-1.518;2022-10-30T07:51:18;43.37;;;40.87;;
31808;SDS011;18379;48.208;-1.518;2022-10-30T07:56:19;42.23;;;39.87;;
31808;SDS011;18379;48.208;-1.518;2022-10-30T08:01:20;42.93;;;40.53;;
31808;SDS011;18379;48.208;-1.518;2022-10-30T08:06:20;41.47;;;39.33;;
31808;SDS011;18379;48.208;-1.518;2022-10-30T08:11:21;42.10;;;39.90;;
31808;SDS011;18379;48.208;-1.518;2022-10-30T08:16:22;41.93;;;39.70;;
31808;SDS011;18379;48.208;-1.518;2022-10-30T08:21:23;42.37;;;39.93;;
31808;SDS011;18379;48.208;-1.518;2022-10-30T08:26:24;42.50;;;40.07;;
31808;SDS011;18379;48.208;-1.518;2022-10-30T08:31:24;42.20;;;40.00;;
31808;SDS011;18379;48.208;-1.518;2022-10-30T08:36:25;42.60;;;40.20;;
31808;SDS011;18379;48.208;-1.518;2022-10-30T08:41:27;42.40;;;40.00;;
31808;SDS011;18379;48.208;-1.518;2022-10-30T08:46:27;43.00;;;40.60;;
31808;SDS011;18379;48.208;-1.518;2022-10-30T08:51:31;44.60;;;41.87;;
31808;SDS011;18379;48.208;-1.518;2022-10-30T08:56:33;53.07;;;49.53;;
31808;SDS011;18379;48.208;-1.518;2022-10-30T09:01:34;54.70;;;51.20;;
31808;SDS011;18379;48.208;-1.518;2022-10-30T09:06:35;53.63;;;50.17;;
31808;SDS011;18379;48.208;-1.518;2022-10-30T09:11:36;53.97;;;50.43;;
31808;SDS011;18379;48.208;-1.518;2022-10-30T09:16:37;54.57;;;51.10;;
31808;SDS011;18379;48.208;-1.518;2022-10-30T09:21:37;55.47;;;51.77;;
31808;SDS011;18379;48.208;-1.518;2022-10-30T09:26:38;53.27;;;49.80;;
31808;SDS011;18379;48.208;-1.518;2022-10-30T09:31:40;53.57;;;50.20;;
31808;SDS011;18379;48.208;-1.518;2022-10-30T09:36:40;55.53;;;51.73;;
31808;SDS011;18379;48.208;-1.518;2022-10-30T09:58:33;53.83;;;50.30;;
31808;SDS011;18379;48.208;-1.518;2022-10-30T10:09:18;55.37;;;51.70;;
31808;SDS011;18379;48.208;-1.518;2022-10-30T10:14:23;42.70;;;40.40;;
31808;SDS011;18379;48.208;-1.518;2022-10-30T10:19:39;55.57;;;51.93;;
31808;SDS011;18379;48.208;-1.518;2022-10-30T10:24:45;55.13;;;51.50;;
31808;SDS011;18379;48.208;-1.518;2022-10-30T10:46:10;43.57;;;40.73;;
31808;SDS011;18379;48.208;-1.518;2022-10-30T10:51:20;51.70;;;48.40;;
31808;SDS011;18379;48.208;-1.518;2022-10-30T10:56:29;43.23;;;40.93;;
31808;SDS011;18379;48.208;-1.518;2022-10-30T11:01:36;54.07;;;50.70;;
31808;SDS011;18379;48.208;-1.518;2022-10-30T11:06:40;54.63;;;51.13;;
31808;SDS011;18379;48.208;-1.518;2022-10-30T11:11:47;47.07;;;44.07;;
31808;SDS011;18379;48.208;-1.518;2022-10-30T11:16:52;44.13;;;41.60;;
31808;SDS011;18379;48.208;-1.518;2022-10-30T11:21:59;46.17;;;43.53;;
31808;SDS011;18379;48.208;-1.518;2022-10-30T11:27:19;52.87;;;49.47;;
31808;SDS011;18379;48.208;-1.518;2022-10-30T11:32:26;44.53;;;41.93;;
31808;SDS011;18379;48.208;-1.518;2022-10-30T11:37:39;46.97;;;44.07;;
31808;SDS011;18379;48.208;-1.518;2022-10-30T11:42:42;55.20;;;51.60;;
31808;SDS011;18379;48.208;-1.518;2022-10-30T11:47:57;44.57;;;42.07;;
31808;SDS011;18379;48.208;-1.518;2022-10-30T11:53:45;47.63;;;44.93;;
31808;SDS011;18379;48.208;-1.518;2022-10-30T11:58:33;47.60;;;44.87;;
31808;SDS011;18379;48.208;-1.518;2022-10-30T12:03:38;56.43;;;52.53;;
31808;SDS011;18379;48.208;-1.518;2022-10-30T12:08:40;55.10;;;51.47;;
31808;SDS011;18379;48.208;-1.518;2022-10-30T12:13:41;55.27;;;51.63;;
31808;SDS011;18379;48.208;-1.518;2022-10-30T12:18:48;56.10;;;52.37;;
31808;SDS011;18379;48.208;-1.518;2022-10-30T12:23:54;44.30;;;41.67;;
31808;SDS011;18379;48.208;-1.518;2022-10-30T12:29:01;44.23;;;41.80;;
31808;SDS011;18379;48.208;-1.518;2022-10-30T12:34:22;55.97;;;52.10;;
31808;SDS011;18379;48.208;-1.518;2022-10-30T12:39:34;45.00;;;42.40;;
31808;SDS011;18379;48.208;-1.518;2022-10-30T12:45:11;57.07;;;52.77;;
31808;SDS011;18379;48.208;-1.518;2022-10-30T12:55:36;47.67;;;44.80;;
31808;SDS011;18379;48.208;-1.518;2022-10-30T13:12:18;52.73;;;49.37;;
31808;SDS011;18379;48.208;-1.518;2022-10-30T13:34:25;46.00;;;42.93;;
31808;SDS011;18379;48.208;-1.518;2022-10-30T13:39:39;46.13;;;42.90;;
31808;SDS011;18379;48.208;-1.518;2022-10-30T13:50:54;55.70;;;52.17;;
31808;SDS011;18379;48.208;-1.518;2022-10-30T13:55:47;51.67;;;48.27;;
31808;SDS011;18379;48.208;-1.518;2022-10-30T14:06:20;55.30;;;51.43;;
31808;SDS011;18379;48.208;-1.518;2022-10-30T14:11:23;45.67;;;42.77;;
31808;SDS011;18379;48.208;-1.518;2022-10-30T14:16:32;45.53;;;42.77;;
31808;SDS011;18379;48.208;-1.518;2022-10-30T14:21:49;57.23;;;53.23;;
31808;SDS011;18379;48.208;-1.518;2022-10-30T14:26:56;47.03;;;44.17;;
31808;SDS011;18379;48.208;-1.518;2022-10-30T14:37:13;57.20;;;53.03;;
31808;SDS011;18379;48.208;-1.518;2022-10-30T14:59:08;46.63;;;43.53;;
31808;SDS011;18379;48.208;-1.518;2022-10-30T15:14:29;44.93;;;42.43;;
31808;SDS011;18379;48.208;-1.518;2022-10-30T15:19:33;54.77;;;51.07;;
31808;SDS011;18379;48.208;-1.518;2022-10-30T15:24:34;56.27;;;52.40;;
31808;SDS011;18379;48.208;-1.518;2022-10-30T15:29:35;57.60;;;53.70;;
31808;SDS011;18379;48.208;-1.518;2022-10-30T15:34:36;56.30;;;52.37;;
31808;SDS011;18379;48.208;-1.518;2022-10-30T15:39:37;57.43;;;53.70;;
31808;SDS011;18379;48.208;-1.518;2022-10-30T15:44:40;55.47;;;51.83;;
31808;SDS011;18379;48.208;-1.518;2022-10-30T15:49:47;56.73;;;53.00;;
31808;SDS011;18379;48.208;-1.518;2022-10-30T15:54:52;46.13;;;43.00;;
31808;SDS011;18379;48.208;-1.518;2022-10-30T15:59:59;45.83;;;42.70;;
31808;SDS011;18379;48.208;-1.518;2022-10-30T16:05:21;56.13;;;52.27;;
31808;SDS011;18379;48.208;-1.518;2022-10-30T16:10:23;45.37;;;42.57;;
31808;SDS011;18379;48.208;-1.518;2022-10-30T16:15:27;45.03;;;42.20;;
31808;SDS011;18379;48.208;-1.518;2022-10-30T16:20:29;46.13;;;42.90;;
31808;SDS011;18379;48.208;-1.518;2022-10-30T16:25:31;49.70;;;46.20;;
31808;SDS011;18379;48.208;-1.518;2022-10-30T16:30:36;56.00;;;51.70;;
31808;SDS011;18379;48.208;-1.518;2022-10-30T16:35:42;50.77;;;47.20;;
31808;SDS011;18379;48.208;-1.518;2022-10-30T16:40:47;52.90;;;49.33;;
31808;SDS011;18379;48.208;-1.518;2022-10-30T16:45:48;48.30;;;45.00;;
31808;SDS011;18379;48.208;-1.518;2022-10-30T16:50:49;45.37;;;42.47;;
31808;SDS011;18379;48.208;-1.518;2022-10-30T16:55:50;44.50;;;41.70;;
31808;SDS011;18379;48.208;-1.518;2022-10-30T17:00:53;44.27;;;41.57;;
31808;SDS011;18379;48.208;-1.518;2022-10-30T17:06:10;56.50;;;52.50;;
31808;SDS011;18379;48.208;-1.518;2022-10-30T17:11:33;45.10;;;42.10;;
31808;SDS011;18379;48.208;-1.518;2022-10-30T17:16:40;47.63;;;44.57;;
31808;SDS011;18379;48.208;-1.518;2022-10-30T17:22:02;45.10;;;42.30;;
31808;SDS011;18379;48.208;-1.518;2022-10-30T17:27:27;56.80;;;52.83;;
31808;SDS011;18379;48.208;-1.518;2022-10-30T17:32:42;56.73;;;52.10;;
31808;SDS011;18379;48.208;-1.518;2022-10-30T17:37:44;58.17;;;53.73;;
31808;SDS011;18379;48.208;-1.518;2022-10-30T17:42:45;56.97;;;52.77;;
31808;SDS011;18379;48.208;-1.518;2022-10-30T17:47:48;48.77;;;45.57;;
31808;SDS011;18379;48.208;-1.518;2022-10-30T17:52:49;47.13;;;43.77;;
31808;SDS011;18379;48.208;-1.518;2022-10-30T17:57:50;45.57;;;42.37;;
31808;SDS011;18379;48.208;-1.518;2022-10-30T18:02:51;46.37;;;43.00;;
31808;SDS011;18379;48.208;-1.518;2022-10-30T18:07:51;45.70;;;42.27;;
31808;SDS011;18379;48.208;-1.518;2022-10-30T18:12:52;45.17;;;42.23;;
31808;SDS011;18379;48.208;-1.518;2022-10-30T18:17:53;46.13;;;43.10;;
31808;SDS011;18379;48.208;-1.518;2022-10-30T18:22:54;44.83;;;41.80;;
31808;SDS011;18379;48.208;-1.518;2022-10-30T18:27:55;45.27;;;42.23;;
31808;SDS011;18379;48.208;-1.518;2022-10-30T18:32:55;45.43;;;42.33;;
31808;SDS011;18379;48.208;-1.518;2022-10-30T18:37:56;45.30;;;42.20;;
31808;SDS011;18379;48.208;-1.518;2022-10-30T18:42:58;45.30;;;42.20;;
31808;SDS011;18379;48.208;-1.518;2022-10-30T18:48:00;44.37;;;41.47;;
31808;SDS011;18379;48.208;-1.518;2022-10-30T18:53:01;45.57;;;42.47;;
31808;SDS011;18379;48.208;-1.518;2022-10-30T18:58:02;48.17;;;44.67;;
31808;SDS011;18379;48.208;-1.518;2022-10-30T19:03:04;54.73;;;50.43;;
31808;SDS011;18379;48.208;-1.518;2022-10-30T19:08:06;49.03;;;44.97;;
31808;SDS011;18379;48.208;-1.518;2022-10-30T19:13:17;51.70;;;47.60;;
31808;SDS011;18379;48.208;-1.518;2022-10-30T19:18:21;48.10;;;43.87;;
31808;SDS011;18379;48.208;-1.518;2022-10-30T19:23:24;46.13;;;42.73;;
31808;SDS011;18379;48.208;-1.518;2022-10-30T19:28:25;46.37;;;42.93;;
31808;SDS011;18379;48.208;-1.518;2022-10-30T19:33:26;46.10;;;42.40;;
31808;SDS011;18379;48.208;-1.518;2022-10-30T19:38:36;56.23;;;51.50;;
31808;SDS011;18379;48.208;-1.518;2022-10-30T19:51:07;61.67;;;56.57;;
31808;SDS011;18379;48.208;-1.518;2022-10-30T19:56:17;59.40;;;54.37;;
31808;SDS011;18379;48.208;-1.518;2022-10-30T20:01:19;49.00;;;45.37;;
31808;SDS011;18379;48.208;-1.518;2022-10-30T20:06:19;49.73;;;45.57;;
31808;SDS011;18379;48.208;-1.518;2022-10-30T20:11:29;45.60;;;42.43;;
31808;SDS011;18379;48.208;-1.518;2022-10-30T20:16:33;56.63;;;52.00;;
31808;SDS011;18379;48.208;-1.518;2022-10-30T20:21:34;56.30;;;51.87;;
31808;SDS011;18379;48.208;-1.518;2022-10-30T20:26:36;56.30;;;52.23;;
31808;SDS011;18379;48.208;-1.518;2022-10-30T20:31:37;56.50;;;52.00;;
31808;SDS011;18379;48.208;-1.518;2022-10-30T20:36:38;60.07;;;55.57;;
31808;SDS011;18379;48.208;-1.518;2022-10-30T20:41:39;59.60;;;54.90;;
31808;SDS011;18379;48.208;-1.518;2022-10-30T20:46:41;57.03;;;52.37;;
31808;SDS011;18379;48.208;-1.518;2022-10-30T20:51:42;56.63;;;52.20;;
31808;SDS011;18379;48.208;-1.518;2022-10-30T20:56:43;57.07;;;52.70;;
31808;SDS011;18379;48.208;-1.518;2022-10-30T21:01:43;58.40;;;53.60;;
31808;SDS011;18379;48.208;-1.518;2022-10-30T21:06:44;57.30;;;52.80;;
31808;SDS011;18379;48.208;-1.518;2022-10-30T21:11:45;60.20;;;55.07;;
31808;SDS011;18379;48.208;-1.518;2022-10-30T21:16:46;59.87;;;55.03;;
31808;SDS011;18379;48.208;-1.518;2022-10-30T21:21:47;63.00;;;57.43;;
31808;SDS011;18379;48.208;-1.518;2022-10-30T21:26:47;57.00;;;52.13;;
31808;SDS011;18379;48.208;-1.518;2022-10-30T21:31:48;53.80;;;49.17;;
31808;SDS011;18379;48.208;-1.518;2022-10-30T21:36:49;48.47;;;45.10;;
31808;SDS011;18379;48.208;-1.518;2022-10-30T21:41:50;47.90;;;44.13;;
31808;SDS011;18379;48.208;-1.518;2022-10-30T21:46:51;45.23;;;42.03;;
31808;SDS011;18379;48.208;-1.518;2022-10-30T21:51:51;42.87;;;39.93;;
31808;SDS011;18379;48.208;-1.518;2022-10-30T21:56:52;44.17;;;40.67;;
31808;SDS011;18379;48.208;-1.518;2022-10-30T22:01:53;44.27;;;41.17;;
31808;SDS011;18379;48.208;-1.518;2022-10-30T22:06:54;45.40;;;42.00;;
31808;SDS011;18379;48.208;-1.518;2022-10-30T22:11:54;44.90;;;41.73;;
31808;SDS011;18379;48.208;-1.518;2022-10-30T22:16:55;44.37;;;41.27;;
31808;SDS011;18379;48.208;-1.518;2022-10-30T22:21:56;44.73;;;41.53;;
31808;SDS011;18379;48.208;-1.518;2022-10-30T22:26:57;44.90;;;41.83;;
31808;SDS011;18379;48.208;-1.518;2022-10-30T22:31:57;44.13;;;41.23;;
31808;SDS011;18379;48.208;-1.518;2022-10-30T22:36:58;44.83;;;41.37;;
31808;SDS011;18379;48.208;-1.518;2022-10-30T22:41:59;44.63;;;41.27;;
31808;SDS011;18379;48.208;-1.518;2022-10-30T22:47:00;44.03;;;41.23;;
31808;SDS011;18379;48.208;-1.518;2022-10-30T22:52:01;46.53;;;43.07;;
31808;SDS011;18379;48.208;-1.518;2022-10-30T22:57:02;47.83;;;44.13;;
31808;SDS011;18379;48.208;-1.518;2022-10-30T23:02:04;52.50;;;48.23;;
31808;SDS011;18379;48.208;-1.518;2022-10-30T23:07:04;54.57;;;50.47;;
31808;SDS011;18379;48.208;-1.518;2022-10-30T23:12:05;54.23;;;50.43;;
31808;SDS011;18379;48.208;-1.518;2022-10-30T23:17:06;55.90;;;51.67;;
31808;SDS011;18379;48.208;-1.518;2022-10-30T23:22:07;54.93;;;50.23;;
31808;SDS011;18379;48.208;-1.518;2022-10-30T23:27:07;55.60;;;51.40;;
31808;SDS011;18379;48.208;-1.518;2022-10-30T23:32:08;56.37;;;52.00;;
31808;SDS011;18379;48.208;-1.518;2022-10-30T23:37:09;53.93;;;50.00;;
31808;SDS011;18379;48.208;-1.518;2022-10-30T23:42:10;55.63;;;51.53;;
31808;SDS011;18379;48.208;-1.518;2022-10-30T23:47:11;55.10;;;50.73;;
31808;SDS011;18379;48.208;-1.518;2022-10-30T23:52:12;54.63;;;50.63;;
31808;SDS011;18379;48.208;-1.518;2022-10-30T23:57:14;53.33;;;49.37;;
